createdAt,value
2018-08-24T00:00:09.266Z,48.55
2018-08-24T00:01:09.259Z,47.86
2018-08-24T00:02:09.545Z,48.65
2018-08-24T00:03:09.281Z,48.75
2018-08-24T00:04:09.507Z,49.15
2018-08-24T00:05:09.541Z,48.85
2018-08-24T00:06:09.130Z,48.05
2018-08-24T00:07:09.235Z,47.96
2018-08-24T00:08:09.191Z,48.47
2018-08-24T00:09:09.177Z,48.75
2018-08-24T00:10:09.218Z,48.65
2018-08-24T00:11:09.075Z,49.15
2018-08-24T00:12:09.858Z,48.38
2018-08-24T00:13:09.055Z,48.15
2018-08-24T00:14:09.133Z,48.45
2018-08-24T00:15:09.019Z,47.96
2018-08-24T00:16:09.081Z,48.25
2018-08-24T00:17:09.276Z,48.15
2018-08-24T00:18:09.350Z,48.25
2018-08-24T00:19:09.064Z,48.15
2018-08-24T00:20:08.992Z,48.27
2018-08-24T00:21:08.984Z,48.18
2018-08-24T00:22:08.968Z,48.05
2018-08-24T00:23:09.199Z,48.15
2018-08-24T00:24:09.024Z,47.88
2018-08-24T00:25:08.913Z,48.27
2018-08-24T00:26:09.026Z,48.15
2018-08-24T00:27:08.927Z,48.27
2018-08-24T00:28:09.248Z,48.18
2018-08-24T00:29:09.134Z,48.08
2018-08-24T00:30:08.862Z,48.18
2018-08-24T00:31:08.860Z,48.18
2018-08-24T00:32:08.970Z,48.27
2018-08-24T00:33:08.851Z,48.05
2018-08-24T00:34:08.979Z,48.15
2018-08-24T00:35:08.871Z,48.47
2018-08-24T00:36:09.430Z,47.58
2018-08-24T00:37:08.926Z,48.08
2018-08-24T00:38:08.799Z,47.98
2018-08-24T00:39:08.907Z,47.98
2018-08-24T00:40:08.850Z,48.38
2018-08-24T00:41:08.740Z,48.77
2018-08-24T00:42:08.855Z,48.57
2018-08-24T00:43:08.826Z,48.08
2018-08-24T00:44:08.968Z,48.38
2018-08-24T00:45:08.716Z,48.18
2018-08-24T00:46:08.784Z,47.78
2018-08-24T00:47:08.796Z,47.88
2018-08-24T00:48:08.789Z,47.78
2018-08-24T00:49:08.758Z,48.18
2018-08-24T00:50:08.751Z,48.38
2018-08-24T00:51:08.990Z,47.88
2018-08-24T00:52:08.639Z,48.10
2018-08-24T00:53:08.987Z,48.10
2018-08-24T00:54:08.604Z,48.40
2018-08-24T00:55:08.677Z,48.20
2018-08-24T00:56:08.592Z,47.90
2018-08-24T00:57:08.676Z,48.20
2018-08-24T00:58:08.826Z,47.90
2018-08-24T00:59:08.676Z,48.20
2018-08-24T01:00:08.634Z,48.10
2018-08-24T01:01:08.635Z,48.20
2018-08-24T01:02:08.532Z,48.30
2018-08-24T01:03:08.867Z,48.30
2018-08-24T01:04:08.753Z,48.10
2018-08-24T01:05:08.852Z,48.30
2018-08-24T01:06:08.969Z,47.90
2018-08-24T01:07:08.480Z,48.20
2018-08-24T01:08:08.456Z,48.13
2018-08-24T01:09:08.548Z,48.42
2018-08-24T01:10:08.761Z,47.92
2018-08-24T01:11:08.438Z,48.02
2018-08-24T01:12:08.493Z,48.13
2018-08-24T01:13:08.415Z,48.72
2018-08-24T01:14:08.405Z,48.72
2018-08-24T01:15:08.385Z,48.52
2018-08-24T01:16:08.742Z,48.72
2018-08-24T01:17:08.437Z,48.62
2018-08-24T01:18:08.464Z,48.62
2018-08-24T01:19:08.466Z,48.42
2018-08-24T01:20:08.344Z,48.42
2018-08-24T01:21:08.330Z,48.82
2018-08-24T01:22:08.383Z,49.02
2018-08-24T01:23:08.418Z,49.41
2018-08-24T01:24:08.285Z,49.51
2018-08-24T01:25:08.372Z,49.32
2018-08-24T01:26:08.300Z,49.61
2018-08-24T01:27:08.253Z,49.32
2018-08-24T01:28:08.253Z,49.74
2018-08-24T01:29:08.244Z,49.51
2018-08-24T01:30:11.032Z,49.91
2018-08-24T01:31:08.208Z,49.61
2018-08-24T01:32:08.277Z,49.61
2018-08-24T01:33:08.199Z,50.01
2018-08-24T01:34:08.288Z,50.43
2018-08-24T01:35:08.179Z,49.93
2018-08-24T01:36:08.155Z,50.13
2018-08-24T01:37:08.277Z,50.23
2018-08-24T01:38:08.249Z,50.11
2018-08-24T01:39:08.123Z,49.74
2018-08-24T01:40:08.743Z,50.40
2018-08-24T01:41:08.099Z,49.81
2018-08-24T01:42:08.091Z,50.40
2018-08-24T01:43:08.105Z,50.70
2018-08-24T01:44:08.200Z,49.91
2018-08-24T01:45:08.313Z,50.60
2018-08-24T01:46:08.049Z,50.70
2018-08-24T01:47:08.134Z,50.73
2018-08-24T01:48:08.102Z,49.93
2018-08-24T01:49:08.019Z,50.13
2018-08-24T01:50:08.342Z,50.53
2018-08-24T01:51:07.994Z,50.13
2018-08-24T01:52:07.983Z,50.83
2018-08-24T01:53:07.983Z,51.03
2018-08-24T01:54:07.961Z,51.03
2018-08-24T01:55:07.949Z,51.03
2018-08-24T01:56:08.455Z,51.23
2018-08-24T01:57:07.952Z,51.32
2018-08-24T01:58:07.931Z,51.72
2018-08-24T01:59:07.951Z,51.52
2018-08-24T02:00:08.420Z,51.23
2018-08-24T02:01:08.158Z,51.42
2018-08-24T02:02:08.014Z,51.05
2018-08-24T02:03:07.880Z,51.65
2018-08-24T02:04:07.972Z,51.54
2018-08-24T02:05:07.854Z,51.45
2018-08-24T02:06:07.943Z,51.65
2018-08-24T02:07:07.835Z,51.45
2018-08-24T02:08:07.828Z,51.65
2018-08-24T02:09:07.925Z,52.04
2018-08-24T02:10:07.786Z,51.65
2018-08-24T02:11:07.775Z,51.84
2018-08-24T02:12:07.764Z,51.52
2018-08-24T02:13:07.784Z,51.35
2018-08-24T02:14:07.830Z,51.35
2018-08-24T02:15:07.757Z,51.65
2018-08-24T02:16:07.735Z,51.95
2018-08-24T02:17:07.713Z,51.95
2018-08-24T02:18:07.969Z,51.54
2018-08-24T02:19:07.706Z,51.75
2018-08-24T02:20:07.692Z,51.95
2018-08-24T02:21:07.770Z,51.95
2018-08-24T02:22:07.675Z,51.84
2018-08-24T02:23:07.938Z,51.65
2018-08-24T02:24:07.676Z,51.65
2018-08-24T02:25:07.895Z,51.15
2018-08-24T02:26:07.873Z,52.04
2018-08-24T02:27:07.872Z,51.75
2018-08-24T02:28:07.687Z,51.75
2018-08-24T02:29:07.682Z,51.84
2018-08-24T02:30:10.221Z,51.54
2018-08-24T02:31:07.639Z,51.84
2018-08-24T02:32:07.562Z,51.75
2018-08-24T02:33:07.563Z,52.04
2018-08-24T02:34:07.545Z,51.54
2018-08-24T02:35:07.780Z,52.14
2018-08-24T02:36:07.596Z,51.65
2018-08-24T02:37:07.520Z,52.24
2018-08-24T02:38:07.514Z,51.75
2018-08-24T02:39:07.517Z,51.75
2018-08-24T02:40:07.537Z,51.75
2018-08-24T02:41:07.568Z,51.45
2018-08-24T02:42:07.443Z,51.65
2018-08-24T02:43:07.447Z,51.75
2018-08-24T02:44:07.575Z,51.45
2018-08-24T02:45:07.474Z,51.65
2018-08-24T02:46:07.484Z,51.54
2018-08-24T02:47:07.476Z,52.04
2018-08-24T02:48:07.397Z,52.04
2018-08-24T02:49:07.386Z,51.84
2018-08-24T02:50:07.724Z,51.75
2018-08-24T02:51:07.349Z,51.15
2018-08-24T02:52:07.507Z,51.54
2018-08-24T02:53:07.451Z,51.25
2018-08-24T02:54:07.329Z,51.35
2018-08-24T02:55:07.303Z,51.65
2018-08-24T02:56:07.315Z,51.35
2018-08-24T02:57:07.379Z,51.35
2018-08-24T02:58:07.542Z,51.54
2018-08-24T02:59:07.274Z,51.45
2018-08-24T03:00:07.504Z,51.25
2018-08-24T03:01:07.406Z,51.35
2018-08-24T03:02:07.382Z,51.35
2018-08-24T03:03:07.604Z,51.57
2018-08-24T03:04:07.363Z,51.84
2018-08-24T03:05:07.426Z,51.77
2018-08-24T03:06:07.806Z,51.97
2018-08-24T03:07:07.294Z,51.57
2018-08-24T03:08:07.337Z,51.87
2018-08-24T03:09:07.278Z,51.47
2018-08-24T03:10:07.371Z,52.26
2018-08-24T03:11:07.247Z,52.09
2018-08-24T03:12:07.230Z,51.87
2018-08-24T03:13:07.395Z,51.60
2018-08-24T03:14:07.246Z,51.79
2018-08-24T03:15:07.486Z,51.70
2018-08-24T03:16:07.220Z,51.67
2018-08-24T03:17:07.348Z,51.70
2018-08-24T03:18:07.187Z,52.00
2018-08-24T03:19:07.399Z,51.79
2018-08-24T03:20:07.181Z,52.26
2018-08-24T03:21:07.149Z,52.07
2018-08-24T03:22:07.397Z,52.07
2018-08-24T03:23:07.014Z,52.17
2018-08-24T03:24:07.042Z,51.50
2018-08-24T03:25:07.004Z,51.87
2018-08-24T03:26:06.994Z,51.47
2018-08-24T03:27:07.091Z,51.57
2018-08-24T03:28:07.107Z,51.97
2018-08-24T03:29:06.959Z,51.87
2018-08-24T03:30:06.969Z,51.37
2018-08-24T03:31:07.284Z,52.00
2018-08-24T03:32:07.035Z,51.77
2018-08-24T03:33:07.232Z,51.77
2018-08-24T03:34:07.009Z,51.79
2018-08-24T03:35:06.888Z,52.09
2018-08-24T03:36:06.881Z,51.77
2018-08-24T03:37:07.085Z,51.37
2018-08-24T03:38:06.962Z,51.97
2018-08-24T03:39:07.216Z,51.70
2018-08-24T03:40:06.954Z,51.50
2018-08-24T03:41:06.968Z,51.40
2018-08-24T03:42:06.915Z,51.70
2018-08-24T03:43:06.910Z,51.70
2018-08-24T03:44:06.941Z,51.89
2018-08-24T03:45:07.115Z,51.89
2018-08-24T03:46:07.046Z,51.79
2018-08-24T03:47:07.121Z,52.00
2018-08-24T03:48:07.028Z,51.79
2018-08-24T03:49:06.881Z,51.79
2018-08-24T03:50:08.244Z,51.72
2018-08-24T03:51:06.839Z,51.60
2018-08-24T03:52:06.794Z,51.60
2018-08-24T03:53:06.857Z,51.50
2018-08-24T03:54:06.830Z,52.09
2018-08-24T03:55:06.686Z,51.70
2018-08-24T03:56:06.772Z,51.00
2018-08-24T03:57:06.763Z,51.60
2018-08-24T03:58:06.743Z,51.60
2018-08-24T03:59:06.887Z,51.30
2018-08-24T04:00:06.897Z,51.30
2018-08-24T04:01:06.866Z,51.40
2018-08-24T04:02:06.717Z,51.40
2018-08-24T04:03:06.590Z,51.42
2018-08-24T04:04:06.690Z,51.42
2018-08-24T04:05:06.685Z,51.22
2018-08-24T04:06:06.674Z,51.10
2018-08-24T04:07:07.097Z,50.23
2018-08-24T04:08:06.660Z,51.12
2018-08-24T04:09:06.652Z,50.20
2018-08-24T04:10:06.634Z,50.63
2018-08-24T04:11:06.498Z,50.73
2018-08-24T04:12:06.546Z,50.52
2018-08-24T04:13:06.596Z,50.31
2018-08-24T04:14:06.724Z,49.93
2018-08-24T04:15:06.599Z,49.83
2018-08-24T04:16:06.549Z,50.10
2018-08-24T04:17:06.573Z,50.52
2018-08-24T04:18:06.694Z,49.93
2018-08-24T04:19:07.029Z,50.82
2018-08-24T04:20:06.695Z,50.43
2018-08-24T04:21:06.490Z,50.43
2018-08-24T04:22:06.494Z,50.33
2018-08-24T04:23:06.459Z,50.52
2018-08-24T04:24:06.481Z,50.73
2018-08-24T04:25:06.733Z,50.33
2018-08-24T04:26:06.502Z,50.43
2018-08-24T04:27:06.456Z,49.73
2018-08-24T04:28:06.421Z,49.83
2018-08-24T04:29:06.420Z,50.03
2018-08-24T04:30:06.424Z,50.33
2018-08-24T04:31:06.411Z,50.13
2018-08-24T04:32:06.621Z,50.33
2018-08-24T04:33:06.266Z,50.33
2018-08-24T04:34:06.262Z,50.03
2018-08-24T04:35:06.536Z,50.33
2018-08-24T04:36:06.480Z,50.03
2018-08-24T04:37:06.218Z,49.53
2018-08-24T04:38:06.319Z,50.13
2018-08-24T04:39:06.335Z,50.25
2018-08-24T04:40:06.195Z,50.03
2018-08-24T04:41:06.293Z,50.23
2018-08-24T04:42:06.299Z,49.73
2018-08-24T04:43:06.153Z,50.13
2018-08-24T04:44:06.269Z,50.13
2018-08-24T04:45:06.256Z,49.43
2018-08-24T04:46:06.257Z,49.53
2018-08-24T04:47:06.233Z,49.33
2018-08-24T04:48:06.475Z,49.04
2018-08-24T04:49:06.244Z,49.43
2018-08-24T04:50:06.571Z,48.64
2018-08-24T04:51:06.182Z,48.54
2018-08-24T04:52:06.198Z,48.74
2018-08-24T04:53:06.067Z,48.94
2018-08-24T04:54:06.141Z,49.04
2018-08-24T04:55:06.423Z,49.43
2018-08-24T04:56:06.066Z,49.04
2018-08-24T04:57:06.106Z,48.64
2018-08-24T04:58:08.026Z,49.23
2018-08-24T04:59:06.115Z,48.64
2018-08-24T05:00:06.085Z,49.13
2018-08-24T05:01:06.598Z,48.04
2018-08-24T05:02:06.076Z,48.44
2018-08-24T05:03:06.052Z,48.14
2018-08-24T05:04:06.049Z,48.14
2018-08-24T05:05:06.041Z,49.04
2018-08-24T05:06:05.906Z,48.34
2018-08-24T05:07:06.247Z,48.44
2018-08-24T05:08:05.968Z,48.24
2018-08-24T05:09:05.867Z,48.14
2018-08-24T05:10:06.402Z,48.24
2018-08-24T05:11:06.239Z,48.44
2018-08-24T05:12:05.855Z,48.34
2018-08-24T05:13:05.945Z,48.44
2018-08-24T05:14:05.891Z,48.41
2018-08-24T05:15:05.830Z,48.64
2018-08-24T05:16:05.953Z,48.22
2018-08-24T05:17:05.911Z,48.02
2018-08-24T05:18:05.774Z,48.32
2018-08-24T05:19:05.883Z,48.32
2018-08-24T05:20:05.868Z,48.71
2018-08-24T05:21:05.759Z,48.52
2018-08-24T05:22:05.888Z,48.32
2018-08-24T05:23:05.875Z,48.32
2018-08-24T05:24:05.722Z,48.32
2018-08-24T05:25:05.830Z,48.52
2018-08-24T05:26:05.697Z,48.02
2018-08-24T05:27:05.813Z,48.41
2018-08-24T05:28:05.726Z,48.19
2018-08-24T05:29:05.691Z,48.22
2018-08-24T05:30:05.754Z,48.11
2018-08-24T05:31:06.031Z,47.80
2018-08-24T05:32:05.746Z,47.89
2018-08-24T05:33:05.728Z,47.62
2018-08-24T05:34:05.596Z,47.80
2018-08-24T05:35:05.712Z,47.60
2018-08-24T05:36:05.751Z,47.89
2018-08-24T05:37:05.948Z,47.30
2018-08-24T05:38:05.682Z,47.40
2018-08-24T05:39:05.909Z,47.50
2018-08-24T05:40:05.542Z,47.30
2018-08-24T05:41:05.766Z,47.30
2018-08-24T05:42:05.947Z,47.30
2018-08-24T05:43:05.646Z,47.10
2018-08-24T05:44:05.610Z,47.30
2018-08-24T05:45:05.581Z,47.50
2018-08-24T05:46:05.498Z,47.40
2018-08-24T05:47:05.482Z,47.30
2018-08-24T05:48:05.498Z,47.40
2018-08-24T05:49:05.550Z,46.80
2018-08-24T05:50:05.448Z,47.70
2018-08-24T05:51:05.540Z,47.40
2018-08-24T05:52:05.526Z,47.50
2018-08-24T05:53:05.422Z,47.30
2018-08-24T05:54:05.764Z,47.50
2018-08-24T05:55:05.484Z,47.20
2018-08-24T05:56:05.714Z,47.60
2018-08-24T05:57:05.447Z,47.10
2018-08-24T05:58:05.474Z,47.10
2018-08-24T05:59:05.446Z,46.70
2018-08-24T06:00:05.328Z,46.90
2018-08-24T06:01:05.458Z,46.90
2018-08-24T06:02:05.310Z,46.80
2018-08-24T06:03:05.421Z,47.70
2018-08-24T06:04:05.280Z,46.80
2018-08-24T06:05:05.520Z,47.20
2018-08-24T06:06:05.388Z,46.80
2018-08-24T06:07:05.249Z,47.40
2018-08-24T06:08:05.247Z,46.01
2018-08-24T06:09:05.232Z,47.30
2018-08-24T06:10:05.352Z,47.20
2018-08-24T06:11:05.466Z,47.10
2018-08-24T06:12:05.231Z,47.40
2018-08-24T06:13:05.307Z,46.70
2018-08-24T06:14:05.305Z,46.50
2018-08-24T06:15:05.334Z,46.80
2018-08-24T06:16:05.260Z,46.50
2018-08-24T06:17:05.219Z,46.70
2018-08-24T06:18:05.707Z,46.50
2018-08-24T06:19:05.231Z,46.50
2018-08-24T06:20:05.229Z,46.31
2018-08-24T06:21:05.253Z,46.31
2018-08-24T06:22:05.228Z,46.70
2018-08-24T06:23:05.076Z,46.01
2018-08-24T06:24:05.206Z,46.50
2018-08-24T06:25:05.798Z,46.50
2018-08-24T06:26:05.080Z,46.31
2018-08-24T06:27:05.111Z,46.70
2018-08-24T06:28:05.184Z,46.80
2018-08-24T06:29:05.011Z,45.90
2018-08-24T06:30:05.926Z,45.98
2018-08-24T06:31:05.099Z,46.01
2018-08-24T06:32:05.597Z,46.20
2018-08-24T06:33:05.172Z,45.98
2018-08-24T06:34:05.086Z,46.68
2018-08-24T06:35:05.023Z,46.28
2018-08-24T06:36:05.865Z,46.48
2018-08-24T06:37:05.165Z,46.48
2018-08-24T06:38:05.296Z,46.68
2018-08-24T06:39:04.904Z,46.28
2018-08-24T06:40:05.022Z,45.98
2018-08-24T06:41:05.010Z,46.06
2018-08-24T06:42:05.331Z,46.28
2018-08-24T06:43:04.905Z,46.28
2018-08-24T06:44:05.030Z,46.46
2018-08-24T06:45:05.042Z,45.98
2018-08-24T06:46:04.839Z,46.48
2018-08-24T06:47:04.983Z,46.48
2018-08-24T06:48:04.983Z,46.28
2018-08-24T06:49:04.905Z,46.28
2018-08-24T06:50:04.793Z,46.08
2018-08-24T06:51:04.808Z,46.19
2018-08-24T06:52:04.913Z,46.28
2018-08-24T06:53:05.192Z,46.08
2018-08-24T06:54:04.811Z,46.19
2018-08-24T06:55:04.885Z,46.19
2018-08-24T06:56:05.157Z,45.68
2018-08-24T06:57:04.748Z,46.08
2018-08-24T06:58:04.841Z,46.31
2018-08-24T06:59:04.811Z,46.50
2018-08-24T07:00:05.077Z,46.41
2018-08-24T07:01:04.822Z,46.50
2018-08-24T07:02:04.939Z,46.70
2018-08-24T07:03:04.796Z,46.50
2018-08-24T07:04:04.635Z,46.41
2018-08-24T07:05:04.776Z,46.31
2018-08-24T07:06:04.954Z,46.31
2018-08-24T07:07:04.758Z,46.03
2018-08-24T07:08:04.962Z,45.90
2018-08-24T07:09:04.583Z,46.20
2018-08-24T07:10:04.978Z,46.31
2018-08-24T07:11:04.693Z,46.41
2018-08-24T07:12:04.705Z,46.60
2018-08-24T07:13:04.763Z,46.60
2018-08-24T07:14:04.534Z,46.31
2018-08-24T07:15:04.655Z,46.23
2018-08-24T07:16:04.956Z,46.13
2018-08-24T07:17:04.587Z,46.01
2018-08-24T07:18:04.504Z,46.60
2018-08-24T07:19:04.618Z,46.72
2018-08-24T07:20:04.475Z,46.33
2018-08-24T07:21:04.574Z,46.31
2018-08-24T07:22:04.838Z,46.62
2018-08-24T07:23:04.784Z,46.60
2018-08-24T07:24:04.432Z,46.50
2018-08-24T07:25:05.330Z,46.41
2018-08-24T07:26:04.534Z,45.93
2018-08-24T07:27:04.559Z,46.42
2018-08-24T07:28:04.743Z,47.42
2018-08-24T07:29:04.981Z,47.52
2018-08-24T07:30:04.381Z,47.32
2018-08-24T07:31:04.658Z,47.82
2018-08-24T07:32:04.503Z,47.52
2018-08-24T07:33:04.923Z,47.72
2018-08-24T07:34:04.895Z,47.42
2018-08-24T07:35:04.681Z,47.82
2018-08-24T07:36:04.548Z,47.13
2018-08-24T07:37:04.422Z,47.82
2018-08-24T07:38:04.399Z,48.11
2018-08-24T07:39:04.401Z,47.72
2018-08-24T07:40:04.274Z,47.62
2018-08-24T07:41:04.312Z,48.02
2018-08-24T07:42:04.379Z,47.62
2018-08-24T07:43:04.382Z,48.02
2018-08-24T07:44:04.468Z,47.72
2018-08-24T07:45:04.268Z,47.62
2018-08-24T07:46:04.275Z,47.32
2018-08-24T07:47:05.020Z,47.13
2018-08-24T07:48:04.341Z,47.22
2018-08-24T07:49:04.287Z,47.32
2018-08-24T07:50:04.159Z,47.30
2018-08-24T07:51:04.151Z,47.52
2018-08-24T07:52:04.270Z,47.72
2018-08-24T07:53:04.214Z,47.40
2018-08-24T07:54:04.341Z,47.42
2018-08-24T07:55:04.191Z,47.82
2018-08-24T07:56:04.085Z,48.11
2018-08-24T07:57:04.290Z,48.11
2018-08-24T07:58:04.329Z,47.99
2018-08-24T07:59:04.192Z,47.30
2018-08-24T08:00:04.035Z,47.20
2018-08-24T08:01:04.034Z,47.40
2018-08-24T08:02:04.150Z,46.60
2018-08-24T08:03:04.124Z,46.70
2018-08-24T08:04:04.593Z,46.50
2018-08-24T08:05:04.117Z,46.80
2018-08-24T08:06:04.454Z,46.70
2018-08-24T08:07:04.383Z,46.01
2018-08-24T08:08:04.326Z,46.11
2018-08-24T08:09:04.070Z,45.81
2018-08-24T08:10:04.054Z,46.58
2018-08-24T08:11:04.069Z,46.48
2018-08-24T08:12:04.074Z,45.71
2018-08-24T08:13:04.119Z,45.29
2018-08-24T08:14:04.360Z,45.59
2018-08-24T08:15:04.146Z,45.59
2018-08-24T08:16:04.265Z,45.68
2018-08-24T08:17:04.004Z,45.39
2018-08-24T08:18:03.998Z,45.79
2018-08-24T08:19:03.953Z,45.59
2018-08-24T08:20:03.824Z,45.79
2018-08-24T08:21:03.923Z,46.08
2018-08-24T08:22:04.189Z,45.59
2018-08-24T08:23:04.390Z,45.39
2018-08-24T08:24:04.177Z,45.39
2018-08-24T08:25:03.782Z,45.89
2018-08-24T08:26:04.494Z,46.38
2018-08-24T08:27:03.861Z,45.79
2018-08-24T08:28:03.894Z,45.29
2018-08-24T08:29:03.846Z,44.87
2018-08-24T08:30:03.715Z,46.28
2018-08-24T08:31:04.122Z,45.89
2018-08-24T08:32:04.074Z,46.19
2018-08-24T08:33:03.830Z,45.67
2018-08-24T08:34:03.818Z,45.76
2018-08-24T08:35:03.792Z,45.17
2018-08-24T08:36:03.829Z,45.17
2018-08-24T08:37:03.719Z,45.07
2018-08-24T08:38:03.773Z,45.07
2018-08-24T08:39:04.096Z,44.45
2018-08-24T08:40:04.095Z,44.85
2018-08-24T08:41:03.772Z,44.75
2018-08-24T08:42:03.641Z,44.85
2018-08-24T08:43:03.962Z,44.85
2018-08-24T08:44:03.704Z,44.06
2018-08-24T08:45:03.872Z,44.06
2018-08-24T08:46:03.947Z,44.65
2018-08-24T08:47:03.535Z,44.06
2018-08-24T08:48:03.674Z,44.95
2018-08-24T08:49:03.657Z,45.05
2018-08-24T08:50:03.621Z,44.95
2018-08-24T08:51:03.952Z,44.65
2018-08-24T08:52:03.965Z,45.25
2018-08-24T08:53:03.476Z,44.55
2018-08-24T08:54:03.587Z,44.65
2018-08-24T08:55:05.006Z,44.95
2018-08-24T08:56:03.614Z,44.65
2018-08-24T08:57:03.445Z,45.05
2018-08-24T08:58:03.534Z,44.85
2018-08-24T08:59:03.514Z,45.25
2018-08-24T09:00:03.507Z,45.45
2018-08-24T09:01:03.414Z,45.74
2018-08-24T09:02:03.575Z,45.54
2018-08-24T09:03:03.571Z,45.34
2018-08-24T09:04:03.487Z,45.94
2018-08-24T09:05:02.462Z,44.45
2018-08-24T09:06:03.547Z,45.74
2018-08-24T09:07:03.528Z,45.42
2018-08-24T09:08:03.425Z,44.45
2018-08-24T09:09:03.319Z,45.25
2018-08-24T09:10:03.656Z,44.85
2018-08-24T09:11:03.438Z,45.15
2018-08-24T09:12:03.267Z,44.95
2018-08-24T09:13:03.569Z,45.64
2018-08-24T09:14:03.361Z,45.45
2018-08-24T09:15:03.340Z,45.64
2018-08-24T09:16:03.232Z,45.94
2018-08-24T09:17:04.216Z,45.64
2018-08-24T09:18:03.206Z,45.32
2018-08-24T09:19:04.186Z,46.31
2018-08-24T09:20:02.194Z,45.82
2018-08-24T09:21:03.237Z,44.83
2018-08-24T09:22:03.266Z,45.12
2018-08-24T09:23:03.148Z,45.82
2018-08-24T09:24:03.312Z,45.42
2018-08-24T09:25:03.286Z,45.32
2018-08-24T09:26:03.172Z,44.33
2018-08-24T09:27:03.301Z,44.93
2018-08-24T09:28:02.296Z,45.23
2018-08-24T09:29:03.342Z,44.83
2018-08-24T09:30:03.133Z,44.93
2018-08-24T09:31:03.219Z,45.12
2018-08-24T09:32:03.058Z,43.93
2018-08-24T09:33:03.883Z,44.83
2018-08-24T09:34:03.415Z,43.74
2018-08-24T09:35:03.380Z,44.13
2018-08-24T09:36:03.157Z,44.63
2018-08-24T09:37:02.994Z,45.23
2018-08-24T09:38:03.138Z,44.93
2018-08-24T09:39:02.988Z,44.33
2018-08-24T09:40:02.962Z,44.13
2018-08-24T09:41:03.080Z,45.12
2018-08-24T09:42:02.939Z,44.83
2018-08-24T09:43:03.397Z,44.43
2018-08-24T09:44:03.050Z,44.43
2018-08-24T09:45:03.041Z,44.53
2018-08-24T09:46:03.044Z,44.73
2018-08-24T09:47:02.940Z,45.12
2018-08-24T09:48:03.032Z,44.93
2018-08-24T09:49:02.937Z,43.93
2018-08-24T09:50:03.221Z,44.73
2018-08-24T09:51:02.846Z,44.73
2018-08-24T09:52:02.847Z,44.23
2018-08-24T09:53:02.973Z,44.63
2018-08-24T09:54:02.843Z,44.63
2018-08-24T09:55:02.870Z,44.63
2018-08-24T09:56:02.824Z,44.93
2018-08-24T09:57:03.022Z,44.04
2018-08-24T09:58:02.826Z,44.13
2018-08-24T09:59:02.158Z,44.04
2018-08-24T10:00:03.142Z,44.23
2018-08-24T10:01:02.844Z,43.74
2018-08-24T10:02:02.989Z,43.32
2018-08-24T10:03:02.825Z,43.12
2018-08-24T10:04:02.842Z,42.63
2018-08-24T10:05:02.956Z,42.92
2018-08-24T10:06:02.683Z,42.63
2018-08-24T10:07:02.693Z,43.62
2018-08-24T10:08:02.839Z,43.32
2018-08-24T10:09:02.783Z,42.92
2018-08-24T10:10:02.804Z,43.02
2018-08-24T10:11:02.729Z,41.53
2018-08-24T10:12:02.770Z,42.82
2018-08-24T10:13:02.743Z,41.83
2018-08-24T10:14:02.675Z,41.63
2018-08-24T10:15:02.761Z,41.44
2018-08-24T10:16:02.833Z,41.53
2018-08-24T10:17:02.647Z,41.73
2018-08-24T10:18:02.669Z,41.53
2018-08-24T10:19:02.688Z,41.33
2018-08-24T10:20:02.716Z,41.71
2018-08-24T10:21:03.588Z,41.22
2018-08-24T10:22:02.770Z,41.31
2018-08-24T10:23:02.629Z,41.31
2018-08-24T10:24:02.870Z,41.31
2018-08-24T10:25:02.489Z,41.91
2018-08-24T10:26:02.497Z,41.31
2018-08-24T10:27:02.591Z,41.31
2018-08-24T10:28:02.777Z,41.61
2018-08-24T10:29:02.832Z,41.81
2018-08-24T10:30:02.440Z,41.71
2018-08-24T10:31:02.573Z,41.22
2018-08-24T10:32:02.734Z,41.52
2018-08-24T10:33:02.653Z,41.30
2018-08-24T10:34:02.494Z,40.80
2018-08-24T10:35:02.514Z,41.20
2018-08-24T10:36:02.829Z,41.12
2018-08-24T10:37:02.591Z,40.52
2018-08-24T10:38:02.621Z,41.79
2018-08-24T10:39:02.511Z,41.81
2018-08-24T10:40:02.704Z,41.99
2018-08-24T10:41:02.574Z,41.20
2018-08-24T10:42:02.361Z,41.52
2018-08-24T10:43:02.412Z,41.41
2018-08-24T10:44:02.368Z,40.60
2018-08-24T10:45:02.259Z,39.42
2018-08-24T10:46:02.620Z,39.81
2018-08-24T10:47:06.169Z,39.51
2018-08-24T10:48:03.336Z,39.61
2018-08-24T10:49:02.229Z,39.91
2018-08-24T10:50:02.217Z,38.72
2018-08-24T10:51:02.322Z,39.42
2018-08-24T10:52:02.289Z,39.91
2018-08-24T10:53:02.302Z,39.42
2018-08-24T10:54:02.181Z,38.62
2018-08-24T10:55:02.375Z,38.82
2018-08-24T10:56:02.614Z,38.92
2018-08-24T10:57:02.466Z,39.02
2018-08-24T10:58:02.666Z,38.82
2018-08-24T10:59:02.283Z,39.73
2018-08-24T11:00:02.490Z,39.02
2018-08-24T11:01:02.540Z,39.51
2018-08-24T11:02:02.284Z,39.43
2018-08-24T11:03:02.430Z,40.12
2018-08-24T11:04:02.312Z,40.72
2018-08-24T11:05:04.129Z,40.20
2018-08-24T11:06:02.263Z,39.23
2018-08-24T11:07:02.063Z,39.23
2018-08-24T11:08:02.095Z,38.82
2018-08-24T11:09:02.149Z,38.23
2018-08-24T11:10:02.106Z,37.83
2018-08-24T11:11:02.065Z,37.34
2018-08-24T11:12:02.364Z,37.15
2018-08-24T11:13:02.104Z,37.13
2018-08-24T11:14:02.380Z,36.76
2018-08-24T11:15:02.099Z,37.93
2018-08-24T11:16:02.127Z,37.73
2018-08-24T11:17:01.930Z,38.53
2018-08-24T11:18:02.067Z,38.72
2018-08-24T11:19:02.035Z,38.53
2018-08-24T11:20:01.910Z,38.92
2018-08-24T11:21:02.065Z,38.72
2018-08-24T11:22:02.064Z,38.72
2018-08-24T11:23:02.156Z,38.82
2018-08-24T11:24:02.153Z,38.70
2018-08-24T11:25:02.131Z,38.70
2018-08-24T11:26:01.913Z,38.70
2018-08-24T11:27:01.906Z,38.90
2018-08-24T11:28:02.192Z,38.60
2018-08-24T11:29:01.889Z,38.78
2018-08-24T11:30:02.146Z,38.78
2018-08-24T11:31:01.917Z,38.19
2018-08-24T11:32:01.769Z,37.70
2018-08-24T11:33:02.100Z,37.30
2018-08-24T11:34:04.155Z,37.79
2018-08-24T11:35:01.734Z,37.30
2018-08-24T11:36:01.893Z,37.20
2018-08-24T11:37:01.724Z,36.90
2018-08-24T11:38:01.813Z,35.80
2018-08-24T11:39:01.971Z,35.11
2018-08-24T11:40:01.676Z,35.30
2018-08-24T11:41:02.120Z,35.80
2018-08-24T11:42:01.837Z,35.60
2018-08-24T11:43:01.786Z,36.59
2018-08-24T11:44:01.684Z,36.59
2018-08-24T11:45:01.976Z,35.99
2018-08-24T11:46:01.760Z,36.98
2018-08-24T11:47:01.991Z,37.28
2018-08-24T11:48:01.667Z,37.18
2018-08-24T11:49:01.714Z,36.98
2018-08-24T11:50:01.765Z,37.18
2018-08-24T11:51:02.461Z,37.28
2018-08-24T11:52:01.680Z,37.77
2018-08-24T11:53:01.953Z,38.37
2018-08-24T11:54:01.673Z,38.07
2018-08-24T11:55:01.515Z,37.18
2018-08-24T11:56:01.670Z,37.66
2018-08-24T11:57:01.628Z,38.94
2018-08-24T11:58:01.865Z,38.27
2018-08-24T11:59:01.582Z,38.45
2018-08-24T12:00:02.311Z,38.25
2018-08-24T12:01:01.468Z,38.55
2018-08-24T12:02:01.597Z,38.75
2018-08-24T12:03:01.813Z,38.65
2018-08-24T12:04:01.678Z,38.84
2018-08-24T12:05:01.420Z,38.65
2018-08-24T12:06:01.431Z,37.16
2018-08-24T12:07:01.693Z,37.74
2018-08-24T12:08:01.644Z,37.94
2018-08-24T12:09:01.497Z,37.05
2018-08-24T12:10:01.397Z,37.15
2018-08-24T12:11:01.736Z,36.55
2018-08-24T12:12:01.432Z,36.46
2018-08-24T12:13:01.707Z,36.55
2018-08-24T12:14:01.627Z,35.76
2018-08-24T12:15:01.503Z,35.37
2018-08-24T12:16:01.454Z,35.66
2018-08-24T12:17:01.282Z,35.47
2018-08-24T12:18:01.352Z,35.47
2018-08-24T12:19:01.643Z,35.27
2018-08-24T12:20:01.279Z,34.95
2018-08-24T12:21:01.318Z,35.55
2018-08-24T12:22:01.377Z,35.45
2018-08-24T12:23:01.434Z,35.35
2018-08-24T12:24:01.367Z,35.35
2018-08-24T12:25:01.218Z,35.25
2018-08-24T12:26:01.626Z,35.05
2018-08-24T12:27:01.316Z,35.35
2018-08-24T12:28:01.182Z,35.05
2018-08-24T12:29:01.530Z,36.73
2018-08-24T12:30:01.325Z,35.85
2018-08-24T12:31:01.360Z,35.25
2018-08-24T12:32:01.274Z,35.85
2018-08-24T12:33:01.243Z,35.25
2018-08-24T12:34:01.539Z,35.45
2018-08-24T12:35:01.265Z,35.75
2018-08-24T12:36:01.224Z,35.75
2018-08-24T12:37:01.208Z,35.55
2018-08-24T12:38:01.151Z,35.15
2018-08-24T12:39:01.085Z,35.85
2018-08-24T12:40:01.147Z,35.64
2018-08-24T12:41:01.174Z,36.73
2018-08-24T12:42:01.444Z,35.73
2018-08-24T12:43:01.123Z,35.55
2018-08-24T12:44:01.102Z,36.12
2018-08-24T12:45:01.102Z,35.04
2018-08-24T12:46:01.105Z,35.43
2018-08-24T12:47:01.102Z,35.25
2018-08-24T12:48:01.101Z,35.24
2018-08-24T12:49:01.224Z,35.45
2018-08-24T12:50:01.065Z,35.24
2018-08-24T12:51:01.037Z,35.35
2018-08-24T12:52:01.813Z,35.45